Time;durP1;ratioP1;P1;durP2;ratioP2;P2;SDS_P1;SDS_P2;PMS_P1;PMS_P2;Temp;Humidity;BMP_temperature;BMP_pressure;BME280_temperature;BME280_humidity;BME280_pressure;Samples;Min_cycle;Max_cycle;Signal;HPM_P1;HPM_P2
2022/06/20 00:01:00;;;;;;;13.67;2.80;;;13.90;81.90;;;;;;5075319;28;20704;-86
2022/06/20 00:03:37;;;;;;;8.00;2.37;;;13.90;82.40;;;;;;5074146;28;20172;-87
2022/06/20 00:06:04;;;;;;;6.43;2.10;;;14.00;82.40;;;;;;5074198;28;20183;-86
2022/06/20 00:08:29;;;;;;;6.50;2.20;;;14.00;82.00;;;;;;5075306;28;20677;-87
2022/06/20 00:10:55;;;;;;;9.70;2.30;;;14.00;81.80;;;;;;5075213;28;20195;-86
2022/06/20 00:13:24;;;;;;;8.37;3.10;;;13.90;81.90;;;;;;5073928;28;20178;-87
2022/06/20 00:15:53;;;;;;;11.63;2.80;;;13.70;81.60;;;;;;5073898;28;20529;-87
2022/06/20 00:18:19;;;;;;;8.77;2.37;;;13.50;82.50;;;;;;5074902;28;20229;-87
2022/06/20 00:20:45;;;;;;;8.70;2.63;;;13.40;83.20;;;;;;5073723;28;20575;-87
2022/06/20 00:23:11;;;;;;;7.87;2.33;;;13.50;82.90;;;;;;5074867;28;20182;-87
2022/06/20 00:25:38;;;;;;;6.00;2.03;;;13.30;83.30;;;;;;5074404;28;20321;-87
2022/06/20 00:28:04;;;;;;;5.93;2.10;;;13.40;83.10;;;;;;5074843;28;20177;-86
2022/06/20 00:30:30;;;;;;;7.53;2.37;;;13.50;83.00;;;;;;5073588;28;20289;-87
2022/06/20 00:32:55;;;;;;;7.97;2.20;;;13.50;82.90;;;;;;5073481;28;20604;-86
2022/06/20 00:35:21;;;;;;;8.97;1.97;;;13.50;82.50;;;;;;5074839;28;20258;-87
2022/06/20 00:37:47;;;;;;;12.53;2.43;;;13.50;82.70;;;;;;5075069;28;20652;-87
2022/06/20 00:40:22;;;;;;;11.47;2.53;;;13.40;82.90;;;;;;5074548;28;20207;-87
2022/06/20 00:42:49;;;;;;;15.97;2.80;;;13.40;82.80;;;;;;5073802;28;20179;-85
2022/06/20 00:45:16;;;;;;;7.23;2.27;;;13.30;83.00;;;;;;5074929;28;20199;-86
2022/06/20 00:47:45;;;;;;;14.03;2.50;;;13.40;83.20;;;;;;5074534;28;20167;-85
2022/06/20 00:50:23;;;;;;;14.40;2.70;;;13.30;83.20;;;;;;5073168;28;20191;-86
2022/06/20 00:53:04;;;;;;;14.37;2.57;;;13.30;83.70;;;;;;5073241;28;20217;-85
2022/06/20 00:55:39;;;;;;;12.83;2.70;;;13.30;83.70;;;;;;5074593;28;20270;-85
2022/06/20 00:58:36;;;;;;;10.13;2.70;;;13.10;84.70;;;;;;5072878;28;20300;-86
2022/06/20 01:01:02;;;;;;;11.80;2.90;;;13.20;84.70;;;;;;5072991;28;20187;-85
2022/06/20 01:03:37;;;;;;;7.53;2.67;;;13.30;85.10;;;;;;5072954;28;20263;-85
2022/06/20 01:06:10;;;;;;;13.60;2.97;;;13.30;85.00;;;;;;5073050;28;20596;-88
2022/06/20 01:08:57;;;;;;;10.43;2.70;;;13.40;84.70;;;;;;5074109;28;20237;-85
2022/06/20 01:11:26;;;;;;;12.43;2.93;;;13.30;84.40;;;;;;5074013;28;20191;-85
2022/06/20 01:13:53;;;;;;;14.43;2.97;;;13.20;84.50;;;;;;5072649;28;20176;-85
2022/06/20 01:16:28;;;;;;;16.23;4.37;;;13.30;84.60;;;;;;5074554;28;20660;-85
2022/06/20 01:18:55;;;;;;;10.17;2.80;;;13.30;84.50;;;;;;5073866;28;20198;-85
2022/06/20 01:21:33;;;;;;;14.03;3.57;;;13.30;84.40;;;;;;5072698;28;20233;-85
2022/06/20 01:24:27;;;;;;;13.33;4.10;;;13.20;85.00;;;;;;5072813;28;20182;-86
2022/06/20 01:27:34;;;;;;;14.37;3.47;;;13.10;85.50;;;;;;5072706;28;20155;-85
2022/06/20 01:30:00;;;;;;;9.77;3.00;;;13.20;85.40;;;;;;5073464;28;20213;-85
2022/06/20 01:32:25;;;;;;;12.57;3.03;;;13.20;85.20;;;;;;5073700;28;20171;-85
2022/06/20 01:34:51;;;;;;;10.67;3.07;;;13.20;85.00;;;;;;5072381;28;20296;-86
2022/06/20 01:37:29;;;;;;;8.50;2.83;;;13.00;85.70;;;;;;5071699;28;20207;-85
2022/06/20 01:40:24;;;;;;;9.50;2.60;;;12.90;86.50;;;;;;5072522;28;20301;-86
2022/06/20 01:42:49;;;;;;;14.43;3.20;;;12.80;86.70;;;;;;5073702;28;20183;-86
2022/06/20 01:48:06;;;;;;;11.83;2.87;;;12.90;87.20;;;;;;5074513;28;20201;-86
2022/06/20 01:50:33;;;;;;;10.93;2.97;;;13.00;87.10;;;;;;5072504;28;20195;-85
2022/06/20 01:53:03;;;;;;;9.63;2.40;;;13.00;86.80;;;;;;5072527;28;20224;-85
2022/06/20 01:55:29;;;;;;;11.87;2.67;;;13.00;86.50;;;;;;5072476;28;20167;-85
2022/06/20 01:58:04;;;;;;;8.87;3.00;;;13.00;86.10;;;;;;5074377;28;20191;-85
2022/06/20 02:00:30;;;;;;;14.03;3.53;;;12.90;85.20;;;;;;5073673;28;20249;-85
2022/06/20 02:03:01;;;;;;;6.63;2.47;;;12.80;85.80;;;;;;5072349;28;20172;-85
2022/06/20 02:05:30;;;;;;;12.17;3.07;;;12.80;85.80;;;;;;5072389;28;20659;-85
2022/06/20 02:08:02;;;;;;;9.30;2.97;;;12.90;85.40;;;;;;5072350;28;20186;-85
2022/06/20 02:10:44;;;;;;;8.23;3.07;;;12.90;85.00;;;;;;5072217;28;20203;-85
2022/06/20 02:13:11;;;;;;;10.77;2.60;;;12.80;84.60;;;;;;5073735;28;20228;-86
2022/06/20 02:15:37;;;;;;;8.87;2.20;;;12.80;84.40;;;;;;5073696;28;20207;-86
2022/06/20 02:18:06;;;;;;;10.47;2.23;;;12.80;84.30;;;;;;5073407;28;20702;-86
2022/06/20 02:20:44;;;;;;;15.47;2.83;;;12.80;84.10;;;;;;5072195;28;20187;-86
2022/06/20 02:23:10;;;;;;;10.70;2.80;;;12.80;83.90;;;;;;5073653;28;20671;-86
2022/06/20 02:25:35;;;;;;;12.63;2.70;;;12.80;84.00;;;;;;5072051;28;20266;-86
2022/06/20 02:28:14;;;;;;;16.90;3.77;;;12.70;84.50;;;;;;5073322;28;20168;-86
2022/06/20 02:30:39;;;;;;;14.97;2.83;;;12.60;85.10;;;;;;5072122;28;20194;-85
2022/06/20 02:33:25;;;;;;;24.50;2.77;;;12.70;85.40;;;;;;5073366;28;20179;-86
2022/06/20 02:35:56;;;;;;;12.57;3.50;;;12.70;85.30;;;;;;5072096;28;20660;-86
2022/06/20 02:38:22;;;;;;;12.73;3.47;;;12.60;85.30;;;;;;5073481;28;20195;-86
2022/06/20 02:40:49;;;;;;;7.63;3.17;;;12.50;86.10;;;;;;5071754;28;20195;-86
2022/06/20 02:43:28;;;;;;;11.30;3.07;;;12.50;86.50;;;;;;5071861;28;20653;-85
2022/06/20 02:45:56;;;;;;;14.37;3.57;;;12.60;86.50;;;;;;5071968;28;20532;-85
2022/06/20 02:48:23;;;;;;;13.77;3.57;;;12.50;86.40;;;;;;5074778;28;20645;-85
2022/06/20 02:50:54;;;;;;;11.03;3.33;;;12.50;86.90;;;;;;5076921;28;20191;-85
2022/06/20 02:53:25;;;;;;;9.53;3.40;;;12.50;87.10;;;;;;5077183;28;20209;-86
2022/06/20 02:55:51;;;;;;;8.50;3.40;;;12.60;87.20;;;;;;5076017;28;20171;-85
2022/06/20 02:58:25;;;;;;;12.87;3.70;;;12.60;87.30;;;;;;5076963;28;20164;-86
2022/06/20 03:01:05;;;;;;;12.70;3.50;;;12.60;87.10;;;;;;5076526;28;20287;-86
2022/06/20 03:03:35;;;;;;;11.63;4.20;;;12.50;87.20;;;;;;5075700;28;20167;-86
2022/06/20 03:06:03;;;;;;;17.80;3.60;;;12.30;87.70;;;;;;5076814;28;20168;-85
2022/06/20 03:08:30;;;;;;;19.13;4.20;;;12.30;88.00;;;;;;5075501;28;20179;-86
2022/06/20 03:11:01;;;;;;;12.43;3.33;;;12.30;88.30;;;;;;5076786;28;20266;-86
2022/06/20 03:13:27;;;;;;;21.00;4.07;;;12.30;88.20;;;;;;5076593;28;20151;-85
2022/06/20 03:15:52;;;;;;;11.23;3.10;;;12.30;88.20;;;;;;5075321;28;20266;-85
2022/06/20 03:18:21;;;;;;;10.83;3.23;;;12.20;88.00;;;;;;5075077;28;20640;-85
2022/06/20 03:20:47;;;;;;;25.80;3.87;;;12.10;88.40;;;;;;5076642;28;20187;-85
2022/06/20 03:23:32;;;;;;;11.33;3.73;;;12.10;88.60;;;;;;5075335;28;20550;-85
2022/06/20 03:26:01;;;;;;;17.70;4.13;;;11.90;89.40;;;;;;5075194;28;20254;-86
2022/06/20 03:28:30;;;;;;;16.47;3.80;;;11.80;90.10;;;;;;5075061;28;20248;-85
2022/06/20 03:30:58;;;;;;;17.90;4.00;;;11.70;90.70;;;;;;5075265;28;20195;-86
2022/06/20 03:33:24;;;;;;;17.10;4.50;;;11.80;90.80;;;;;;5076371;28;20179;-86
2022/06/20 03:36:00;;;;;;;14.17;4.00;;;11.80;90.90;;;;;;5076471;28;20183;-86
2022/06/20 03:38:26;;;;;;;25.70;4.67;;;11.80;91.10;;;;;;5075038;28;20203;-86
2022/06/20 03:40:52;;;;;;;14.63;4.33;;;11.80;91.10;;;;;;5075278;28;20191;-86
2022/06/20 03:43:23;;;;;;;14.00;4.17;;;11.90;91.20;;;;;;5075042;28;20261;-86
2022/06/20 03:45:57;;;;;;;22.00;4.53;;;11.80;91.30;;;;;;5076407;28;20148;-85
2022/06/20 03:48:38;;;;;;;17.30;4.57;;;11.90;91.60;;;;;;5074800;28;20221;-86
2022/06/20 03:51:22;;;;;;;15.10;4.07;;;11.80;91.70;;;;;;5074629;28;20229;-85
2022/06/20 03:53:58;;;;;;;18.47;4.67;;;11.90;91.70;;;;;;5074602;28;20164;-85
2022/06/20 03:56:27;;;;;;;18.03;5.30;;;11.90;91.80;;;;;;5074536;28;20191;-86
2022/06/20 03:59:12;;;;;;;15.70;4.17;;;11.90;91.90;;;;;;5073443;28;20230;-86
2022/06/20 04:01:59;;;;;;;16.67;4.83;;;12.00;91.90;;;;;;5074377;28;20170;-86
2022/06/20 04:04:42;;;;;;;19.90;4.30;;;12.10;91.90;;;;;;5074524;28;20630;-85
2022/06/20 04:07:13;;;;;;;18.83;4.63;;;12.20;91.80;;;;;;5076137;28;20250;-86
2022/06/20 04:12:43;;;;;;;20.77;4.60;;;12.30;91.30;;;;;;5075798;28;20163;-85
2022/06/20 04:15:18;;;;;;;16.63;3.90;;;12.40;90.90;;;;;;5075143;28;20173;-86
2022/06/20 04:20:55;;;;;;;16.47;3.97;;;12.50;89.80;;;;;;5075299;28;20206;-86
2022/06/20 04:23:30;;;;;;;18.43;5.27;;;12.50;89.40;;;;;;5073969;28;20163;-86
2022/06/20 04:26:30;;;;;;;20.00;4.27;;;12.60;89.30;;;;;;5074507;28;20166;-86
2022/06/20 04:29:05;;;;;;;13.03;3.97;;;12.60;89.30;;;;;;5062891;28;20191;-86
2022/06/20 04:31:49;;;;;;;13.87;5.37;;;12.60;89.50;;;;;;5075251;28;20636;-85
2022/06/20 04:34:23;;;;;;;23.97;5.77;;;12.50;89.50;;;;;;5073988;28;20171;-86
2022/06/20 04:36:58;;;;;;;22.87;6.10;;;12.60;89.50;;;;;;5075433;28;20167;-85
2022/06/20 04:39:39;;;;;;;23.73;5.03;;;12.60;89.40;;;;;;5075172;28;20202;-85
2022/06/20 04:42:14;;;;;;;20.97;5.70;;;12.70;89.20;;;;;;5075039;28;20175;-86
2022/06/20 04:44:49;;;;;;;19.00;4.30;;;12.70;89.00;;;;;;5074943;28;20152;-86
2022/06/20 04:47:17;;;;;;;13.77;4.23;;;12.70;88.70;;;;;;5074982;28;20163;-86
2022/06/20 04:49:43;;;;;;;19.00;4.80;;;12.80;88.70;;;;;;5075140;28;20666;-86
2022/06/20 04:52:13;;;;;;;16.50;4.23;;;12.80;88.70;;;;;;5074743;28;20213;-86
2022/06/20 04:54:39;;;;;;;26.20;4.70;;;12.90;88.40;;;;;;5073353;28;20203;-86
2022/06/20 04:57:05;;;;;;;17.33;5.23;;;13.00;88.30;;;;;;5074408;28;20228;-86
2022/06/20 04:59:32;;;;;;;20.30;4.70;;;13.00;88.20;;;;;;5074359;28;20214;-85
2022/06/20 05:02:03;;;;;;;17.30;5.00;;;12.90;88.20;;;;;;5074738;28;20253;-88
2022/06/20 05:04:37;;;;;;;20.03;4.90;;;12.90;88.40;;;;;;5074891;28;20160;-85
2022/06/20 05:07:06;;;;;;;15.57;4.80;;;12.90;88.90;;;;;;5073094;28;20172;-86
2022/06/20 05:10:01;;;;;;;16.87;4.73;;;12.90;89.10;;;;;;5072977;28;20661;-85
2022/06/20 05:12:36;;;;;;;18.27;4.93;;;12.90;89.10;;;;;;5073007;28;20207;-86
2022/06/20 05:15:07;;;;;;;15.30;5.03;;;12.90;89.40;;;;;;5072996;28;20174;-85
2022/06/20 05:17:35;;;;;;;16.83;4.13;;;12.90;89.40;;;;;;5073357;28;20186;-86
2022/06/20 05:20:08;;;;;;;10.93;3.63;;;12.90;89.30;;;;;;5072662;28;20253;-86
2022/06/20 05:22:39;;;;;;;20.03;4.17;;;12.90;88.90;;;;;;5074005;28;20167;-85
2022/06/20 05:25:08;;;;;;;15.73;3.90;;;12.90;88.70;;;;;;5072870;28;20171;-85
2022/06/20 05:27:59;;;;;;;15.30;4.27;;;12.90;88.60;;;;;;5072653;28;20175;-86
2022/06/20 05:30:28;;;;;;;18.93;4.53;;;13.00;89.40;;;;;;5072613;28;20237;-86
2022/06/20 05:33:21;;;;;;;15.20;4.17;;;13.00;89.70;;;;;;5073945;28;20167;-85
2022/06/20 05:36:07;;;;;;;18.30;4.10;;;12.90;89.50;;;;;;5073328;28;20203;-86
2022/06/20 05:38:43;;;;;;;15.50;4.13;;;12.90;89.90;;;;;;5072530;28;20712;-85
2022/06/20 05:41:13;;;;;;;14.73;4.07;;;12.90;89.90;;;;;;5073712;28;20734;-86
2022/06/20 05:43:39;;;;;;;16.23;4.67;;;12.90;90.10;;;;;;5072337;28;20614;-86
2022/06/20 05:46:23;;;;;;;13.30;4.30;;;12.80;90.30;;;;;;5072535;28;20274;-86
2022/06/20 05:48:53;;;;;;;19.13;4.97;;;12.70;90.50;;;;;;5073658;28;20640;-86
2022/06/20 05:51:22;;;;;;;12.77;4.07;;;12.80;90.80;;;;;;5073701;28;20191;-86
2022/06/20 05:54:11;;;;;;;12.30;4.70;;;12.60;90.80;;;;;;5072567;28;20202;-85
2022/06/20 05:56:44;;;;;;;14.57;4.60;;;12.70;91.20;;;;;;5072254;28;20194;-85
2022/06/20 05:59:31;;;;;;;15.90;4.60;;;12.70;91.40;;;;;;5073558;28;20221;-85
2022/06/20 06:02:14;;;;;;;16.90;5.00;;;12.70;91.60;;;;;;5055818;28;20181;-86
2022/06/20 06:05:08;;;;;;;15.10;4.60;;;12.80;91.60;;;;;;5073544;28;20596;-86
2022/06/20 06:08:01;;;;;;;14.03;4.70;;;12.90;91.70;;;;;;5070843;28;20187;-86
2022/06/20 06:10:40;;;;;;;17.53;4.70;;;13.10;91.60;;;;;;5072341;28;20235;-86
2022/06/20 06:13:36;;;;;;;11.40;4.03;;;13.10;91.30;;;;;;5073560;28;20668;-86
2022/06/20 06:16:48;;;;;;;14.87;4.17;;;13.20;91.20;;;;;;5072206;28;20240;-86
2022/06/20 06:19:42;;;;;;;11.43;4.13;;;13.20;91.00;;;;;;5071855;28;20207;-86
2022/06/20 06:22:32;;;;;;;15.20;4.13;;;13.20;91.00;;;;;;5071648;28;20217;-86
2022/06/20 06:25:23;;;;;;;22.53;4.87;;;13.30;91.00;;;;;;5072136;28;20198;-86
2022/06/20 06:27:53;;;;;;;17.80;4.80;;;13.30;90.80;;;;;;5073406;28;20614;-86
2022/06/20 06:30:21;;;;;;;17.23;4.97;;;13.40;90.80;;;;;;5072228;28;20572;-86
2022/06/20 06:32:56;;;;;;;14.97;5.00;;;13.40;90.50;;;;;;5071881;28;20266;-86
2022/06/20 06:35:27;;;;;;;7.30;4.20;;;13.50;90.50;;;;;;5072072;28;20190;-86
2022/06/20 06:38:05;;;;;;;17.63;5.20;;;13.70;90.60;;;;;;5073099;28;20499;-87
2022/06/20 06:40:33;;;;;;;13.70;4.33;;;13.80;90.30;;;;;;5072940;28;20700;-87
2022/06/20 06:43:01;;;;;;;11.90;3.50;;;13.80;89.90;;;;;;5071654;28;20179;-87
2022/06/20 06:45:32;;;;;;;14.00;3.80;;;14.00;89.80;;;;;;5071761;28;20183;-86
2022/06/20 06:48:13;;;;;;;10.37;4.07;;;14.00;89.00;;;;;;5073774;28;20515;-86
2022/06/20 06:50:53;;;;;;;18.73;4.40;;;14.30;89.20;;;;;;5071584;28;20198;-85
2022/06/20 06:53:33;;;;;;;12.00;3.27;;;14.50;88.70;;;;;;5073260;28;20156;-85
2022/06/20 06:56:11;;;;;;;8.60;2.83;;;14.50;87.10;;;;;;5072919;28;20233;-85
2022/06/20 06:58:44;;;;;;;8.97;2.50;;;14.50;86.00;;;;;;5073114;28;20183;-86
2022/06/20 07:01:19;;;;;;;7.07;2.43;;;14.70;85.60;;;;;;5071536;28;20248;-86
2022/06/20 07:03:52;;;;;;;10.37;2.70;;;14.80;84.20;;;;;;5071642;28;20656;-87
2022/06/20 07:06:35;;;;;;;11.57;3.20;;;14.80;84.30;;;;;;5072958;28;20563;-86
2022/06/20 07:09:13;;;;;;;10.83;2.77;;;15.00;84.30;;;;;;5071536;28;20202;-86
2022/06/20 07:11:48;;;;;;;8.57;2.93;;;15.10;84.30;;;;;;5071492;28;20171;-86
2022/06/20 07:14:15;;;;;;;8.30;2.20;;;15.20;83.70;;;;;;5071550;28;20174;-86
2022/06/20 07:16:43;;;;;;;8.33;3.43;;;15.40;82.60;;;;;;5072815;28;20174;-86
2022/06/20 07:19:11;;;;;;;9.53;2.80;;;15.20;81.40;;;;;;5072525;28;20195;-85
2022/06/20 07:21:39;;;;;;;11.20;3.50;;;15.50;81.40;;;;;;5072621;28;20167;-85
2022/06/20 07:24:11;;;;;;;7.83;2.20;;;15.30;78.20;;;;;;5072847;28;20159;-86
2022/06/20 07:27:08;;;;;;;5.03;2.10;;;15.40;78.40;;;;;;5071387;28;20251;-86
2022/06/20 07:29:40;;;;;;;8.07;2.30;;;15.10;76.80;;;;;;5071129;28;20196;-86
2022/06/20 07:32:09;;;;;;;6.67;2.20;;;14.80;77.00;;;;;;5071280;28;20617;-85
2022/06/20 07:34:44;;;;;;;6.30;2.30;;;14.80;77.90;;;;;;5072532;28;20269;-85
2022/06/20 07:37:15;;;;;;;9.47;2.67;;;14.90;79.30;;;;;;5074946;28;20202;-86
2022/06/20 07:39:59;;;;;;;10.73;2.60;;;15.10;78.90;;;;;;5076090;28;20199;-86
2022/06/20 07:42:29;;;;;;;8.97;2.43;;;15.20;79.00;;;;;;5076135;28;20162;-87
2022/06/20 07:45:01;;;;;;;7.07;2.37;;;15.20;78.70;;;;;;5074712;28;20164;-86
2022/06/20 07:47:31;;;;;;;7.20;1.97;;;15.20;79.20;;;;;;5074891;28;20175;-86
2022/06/20 07:50:00;;;;;;;5.90;3.20;;;15.00;77.90;;;;;;5074486;28;20199;-86
2022/06/20 07:52:49;;;;;;;9.57;2.67;;;15.00;77.50;;;;;;5074504;28;20634;-86
2022/06/20 07:55:19;;;;;;;10.13;2.73;;;14.90;78.30;;;;;;5075622;28;20258;-85
2022/06/20 07:57:50;;;;;;;9.57;2.90;;;15.10;79.40;;;;;;5075345;28;20648;-85
2022/06/20 08:00:22;;;;;;;11.40;3.13;;;15.60;78.70;;;;;;5075668;28;20211;-85
2022/06/20 08:02:57;;;;;;;7.22;2.60;;;15.80;78.30;;;;;;5074187;28;20179;-85
2022/06/20 08:05:37;;;;;;;8.35;3.17;;;15.50;76.60;;;;;;5074197;28;20217;-85
2022/06/20 08:08:08;;;;;;;10.77;3.10;;;15.60;77.20;;;;;;5074203;28;20182;-85
2022/06/20 08:10:45;;;;;;;10.02;3.83;;;15.70;77.20;;;;;;5074074;28;20297;-85
2022/06/20 08:13:22;;;;;;;11.05;3.22;;;15.70;77.60;;;;;;5074180;28;20179;-85
2022/06/20 08:15:57;;;;;;;9.73;3.45;;;15.60;76.80;;;;;;5073933;28;20179;-84
2022/06/20 08:18:24;;;;;;;13.90;3.97;;;15.80;78.10;;;;;;5073830;28;20175;-85
2022/06/20 08:20:59;;;;;;;12.63;3.72;;;16.00;78.20;;;;;;5073912;28;20192;-85
2022/06/20 08:23:34;;;;;;;11.15;3.78;;;15.80;76.00;;;;;;5073792;28;20633;-85
2022/06/20 08:26:03;;;;;;;8.70;2.63;;;15.90;76.50;;;;;;5075288;28;20151;-86
2022/06/20 08:28:37;;;;;;;12.57;3.33;;;16.20;75.00;;;;;;5073603;28;20167;-86
2022/06/20 08:31:20;;;;;;;12.45;3.28;;;16.60;75.50;;;;;;5074751;28;20266;-85
2022/06/20 08:34:06;;;;;;;19.77;4.00;;;16.60;73.70;;;;;;5074868;28;20630;-86
2022/06/20 08:36:42;;;;;;;9.95;3.22;;;16.70;73.40;;;;;;5074811;28;20625;-85
2022/06/20 08:39:19;;;;;;;8.20;3.17;;;17.20;73.50;;;;;;5073497;28;20609;-86
2022/06/20 08:42:09;;;;;;;7.90;3.05;;;17.40;72.20;;;;;;5073588;28;20170;-86
2022/06/20 08:45:14;;;;;;;12.35;3.08;;;17.70;71.10;;;;;;5074356;28;20547;-85
2022/06/20 08:47:55;;;;;;;9.18;2.92;;;17.80;69.80;;;;;;5075095;28;20155;-86
2022/06/20 08:50:59;;;;;;;12.95;3.75;;;17.80;69.50;;;;;;5075093;28;20199;-86
2022/06/20 08:53:31;;;;;;;9.00;2.92;;;17.50;70.50;;;;;;5075660;28;20183;-87
2022/06/20 08:56:18;;;;;;;7.47;2.40;;;17.10;69.10;;;;;;5075722;28;20167;-87
2022/06/20 08:59:13;;;;;;;10.77;3.30;;;17.10;69.80;;;;;;5074531;28;20710;-88
2022/06/20 09:01:58;;;;;;;10.48;2.65;;;17.30;69.00;;;;;;5076151;28;20648;-87
2022/06/20 09:04:47;;;;;;;12.60;3.25;;;17.00;69.40;;;;;;5076137;28;20238;-87
2022/06/20 09:07:28;;;;;;;10.50;3.15;;;17.00;68.80;;;;;;5073461;28;20160;-86
2022/06/20 09:10:19;;;;;;;11.05;2.92;;;17.00;69.40;;;;;;5073216;28;20624;-85
2022/06/20 09:12:53;;;;;;;10.05;2.58;;;17.30;68.00;;;;;;5074438;28;20171;-86
2022/06/20 09:15:54;;;;;;;6.07;2.47;;;17.50;66.70;;;;;;5072994;28;20171;-86
2022/06/20 09:18:43;;;;;;;11.05;2.50;;;17.30;63.10;;;;;;5072719;28;20766;-85
2022/06/20 09:21:42;;;;;;;9.13;2.75;;;17.50;63.40;;;;;;5072850;28;20612;-86
2022/06/20 09:24:37;;;;;;;8.93;2.88;;;18.10;64.60;;;;;;5072884;28;20160;-85
2022/06/20 09:27:16;;;;;;;13.32;3.33;;;17.90;64.60;;;;;;5072630;28;20163;-86
2022/06/20 09:30:07;;;;;;;11.70;3.13;;;18.40;62.80;;;;;;5072537;28;20282;-85
2022/06/20 09:32:56;;;;;;;6.22;2.92;;;18.80;62.60;;;;;;5069972;28;20266;-87
2022/06/20 09:35:40;;;;;;;8.57;3.90;;;18.50;61.70;;;;;;5072934;28;20174;-85
2022/06/20 09:38:21;;;;;;;7.68;3.38;;;17.70;61.20;;;;;;5073988;28;20152;-87
2022/06/20 09:40:54;;;;;;;9.07;3.25;;;17.60;62.10;;;;;;5072483;28;20754;-87
2022/06/20 09:44:04;;;;;;;8.10;2.67;;;17.20;64.20;;;;;;5072541;28;20185;-85
2022/06/20 09:46:49;;;;;;;11.23;2.58;;;17.30;63.40;;;;;;5065007;28;20179;-85
2022/06/20 09:49:40;;;;;;;9.20;2.88;;;17.20;63.10;;;;;;5073978;28;20167;-85
2022/06/20 09:52:21;;;;;;;6.55;3.25;;;16.80;64.80;;;;;;5072306;28;20225;-86
2022/06/20 09:55:14;;;;;;;11.05;3.00;;;17.00;66.60;;;;;;5073444;28;20167;-85
2022/06/20 09:58:16;;;;;;;11.02;2.60;;;17.70;66.00;;;;;;5073076;28;20183;-85
2022/06/20 10:01:12;;;;;;;9.45;2.95;;;18.00;60.90;;;;;;5072254;28;20215;-86
2022/06/20 10:03:38;;;;;;;10.70;2.78;;;17.50;62.80;;;;;;5073402;28;20160;-85
2022/06/20 10:06:36;;;;;;;10.20;2.40;;;17.40;62.90;;;;;;5071983;28;20175;-85
2022/06/20 10:09:40;;;;;;;9.75;3.10;;;17.00;60.60;;;;;;5072081;28;20179;-85
2022/06/20 10:12:06;;;;;;;13.32;2.35;;;17.70;60.10;;;;;;5073405;28;20582;-85
2022/06/20 10:15:00;;;;;;;8.10;2.42;;;18.30;58.40;;;;;;5073133;28;20171;-84
2022/06/20 10:17:39;;;;;;;6.47;2.35;;;18.00;57.80;;;;;;5071960;28;20205;-85
2022/06/20 10:20:16;;;;;;;8.40;2.42;;;18.20;58.30;;;;;;5072174;28;20210;-86
2022/06/20 10:23:03;;;;;;;9.85;2.67;;;18.20;57.10;;;;;;5073435;28;20171;-85
2022/06/20 10:25:32;;;;;;;9.57;2.60;;;17.60;60.00;;;;;;5071934;28;20217;-86
2022/06/20 10:28:10;;;;;;;7.88;2.10;;;17.70;61.20;;;;;;5072032;28;20182;-86
2022/06/20 10:30:50;;;;;;;9.02;2.97;;;17.60;62.30;;;;;;5072370;28;20203;-88
2022/06/20 10:33:34;;;;;;;12.25;3.28;;;17.40;64.40;;;;;;5072414;28;20179;-86
2022/06/20 10:36:18;;;;;;;7.22;2.40;;;17.30;65.80;;;;;;5071907;28;20175;-86
2022/06/20 10:39:10;;;;;;;7.75;2.90;;;17.70;63.70;;;;;;5071705;28;20211;-86
2022/06/20 10:41:58;;;;;;;8.43;2.40;;;18.20;62.40;;;;;;5071803;28;20170;-86
2022/06/20 10:44:34;;;;;;;6.95;1.95;;;18.50;60.40;;;;;;5071865;28;20160;-86
2022/06/20 10:47:03;;;;;;;8.10;2.30;;;18.30;57.50;;;;;;5073144;28;20637;-86
2022/06/20 10:50:19;;;;;;;4.90;1.90;;;17.80;58.30;;;;;;5073506;28;20180;-86
2022/06/20 10:52:59;;;;;;;6.97;1.83;;;18.70;57.90;;;;;;5060859;28;20186;-86
2022/06/20 10:55:45;;;;;;;3.80;1.65;;;18.50;54.90;;;;;;5073074;28;20276;-87
2022/06/20 10:58:19;;;;;;;5.75;1.90;;;18.80;58.00;;;;;;5073299;28;20168;-87
2022/06/20 11:00:52;;;;;;;11.40;2.53;;;19.00;56.70;;;;;;5073285;28;20576;-86
2022/06/20 11:03:50;;;;;;;8.45;1.70;;;19.00;58.10;;;;;;5071977;28;20668;-86
2022/06/20 11:06:47;;;;;;;6.43;1.50;;;19.40;54.60;;;;;;5072564;28;20629;-85
2022/06/20 11:09:32;;;;;;;5.07;1.60;;;19.50;54.60;;;;;;5075201;28;20164;-86
2022/06/20 11:12:26;;;;;;;3.03;1.40;;;18.80;56.60;;;;;;5076069;28;20168;-86
2022/06/20 11:15:11;;;;;;;3.58;1.60;;;18.50;59.80;;;;;;5073479;28;20213;-87
2022/06/20 11:17:47;;;;;;;3.33;1.08;;;19.00;56.70;;;;;;5075492;28;20221;-87
2022/06/20 11:20:12;;;;;;;2.60;1.15;;;19.00;55.30;;;;;;5076264;28;20210;-88
2022/06/20 11:22:43;;;;;;;3.28;1.20;;;19.10;55.70;;;;;;5076321;28;20648;-87
2022/06/20 11:25:17;;;;;;;4.47;1.40;;;20.00;54.70;;;;;;5076174;28;20175;-87
2022/06/20 11:27:51;;;;;;;4.38;1.33;;;20.10;56.00;;;;;;5077085;28;20167;-87
2022/06/20 11:30:27;;;;;;;3.83;1.17;;;19.30;56.80;;;;;;5075095;28;20554;-86
2022/06/20 11:33:10;;;;;;;5.35;1.65;;;18.50;57.50;;;;;;5076444;28;20163;-87
2022/06/20 11:36:02;;;;;;;3.67;1.40;;;19.00;57.60;;;;;;5075213;28;20266;-87
2022/06/20 11:38:53;;;;;;;7.40;1.90;;;19.00;56.50;;;;;;5074962;28;20180;-87
2022/06/20 11:41:26;;;;;;;6.22;1.40;;;18.40;58.40;;;;;;5075448;28;20214;-88
2022/06/20 11:43:57;;;;;;;3.45;1.40;;;18.80;58.20;;;;;;5075209;28;20171;-86
2022/06/20 11:47:09;;;;;;;1.90;1.20;;;18.80;57.40;;;;;;5074903;28;20163;-88
2022/06/20 11:49:34;;;;;;;1.95;1.20;;;19.20;55.50;;;;;;5074782;28;20614;-86
2022/06/20 11:52:18;;;;;;;3.63;1.67;;;19.20;57.90;;;;;;5077244;28;20262;-86
2022/06/20 11:55:16;;;;;;;2.90;1.00;;;19.30;53.80;;;;;;5076068;28;20556;-87
2022/06/20 11:57:45;;;;;;;2.55;0.98;;;19.00;53.80;;;;;;5071611;28;20195;-87
2022/06/20 12:00:23;;;;;;;3.70;1.10;;;19.30;52.60;;;;;;5076226;28;20207;-86
2022/06/20 12:03:20;;;;;;;3.28;0.93;;;19.50;52.20;;;;;;5076280;28;20159;-87
2022/06/20 12:06:15;;;;;;;2.88;1.10;;;19.80;51.20;;;;;;5074613;28;20186;-86
2022/06/20 12:09:19;;;;;;;8.27;1.38;;;19.50;55.90;;;;;;5074641;28;20258;-86
2022/06/20 12:11:54;;;;;;;3.55;1.25;;;19.90;55.40;;;;;;5075248;28;20210;-87
2022/06/20 12:14:28;;;;;;;7.32;1.15;;;19.80;51.80;;;;;;5074602;28;20170;-86
2022/06/20 12:17:22;;;;;;;6.55;1.30;;;19.70;53.40;;;;;;5075464;28;20217;-86
2022/06/20 12:25:40;;;;;;;4.45;1.20;;;20.10;50.50;;;;;;5075575;28;20209;-86
2022/06/20 12:28:35;;;;;;;4.60;1.30;;;19.90;51.00;;;;;;5074342;28;20699;-87
2022/06/20 12:31:17;;;;;;;2.38;1.08;;;20.00;49.20;;;;;;5074207;28;20287;-87
2022/06/20 12:33:54;;;;;;;5.95;1.52;;;20.20;50.00;;;;;;5074492;28;20258;-87
2022/06/20 12:36:27;;;;;;;6.43;1.67;;;20.30;52.00;;;;;;5074065;28;20258;-86
2022/06/20 12:39:09;;;;;;;3.75;1.50;;;19.70;55.90;;;;;;5075268;28;20198;-86
2022/06/20 12:41:40;;;;;;;7.38;1.75;;;20.10;52.90;;;;;;5073946;28;20561;-87
2022/06/20 12:44:24;;;;;;;7.15;1.75;;;20.40;53.80;;;;;;5075305;28;20246;-87
2022/06/20 12:47:17;;;;;;;7.40;1.60;;;19.30;54.00;;;;;;5075074;28;20255;-86
2022/06/20 12:50:00;;;;;;;3.10;1.42;;;18.90;55.30;;;;;;5075019;28;20192;-87
2022/06/20 12:52:50;;;;;;;3.75;1.55;;;19.30;51.50;;;;;;5074997;28;20167;-86
2022/06/20 12:55:23;;;;;;;3.85;1.23;;;19.80;52.10;;;;;;5075125;28;20250;-85
2022/06/20 12:57:57;;;;;;;4.47;1.50;;;19.20;51.70;;;;;;5074871;28;20653;-86
2022/06/20 13:00:48;;;;;;;4.18;1.70;;;19.20;53.70;;;;;;5073380;28;20257;-86
2022/06/20 13:03:56;;;;;;;3.08;1.60;;;19.20;53.40;;;;;;5073574;28;20171;-86
2022/06/20 13:06:54;;;;;;;4.28;1.73;;;19.50;54.40;;;;;;5074189;28;20175;-86
2022/06/20 13:09:31;;;;;;;2.65;1.70;;;19.20;54.80;;;;;;5074588;28;20175;-86
2022/06/20 13:12:18;;;;;;;8.18;2.20;;;19.30;56.10;;;;;;5073628;28;20181;-86
2022/06/20 13:15:08;;;;;;;5.88;1.50;;;19.40;55.10;;;;;;5073223;28;20554;-86
2022/06/20 13:18:03;;;;;;;6.93;1.90;;;18.90;55.00;;;;;;5074502;28;20191;-86
2022/06/20 13:20:54;;;;;;;5.35;1.63;;;19.50;55.40;;;;;;5072644;28;20559;-86
2022/06/20 13:24:00;;;;;;;3.03;1.35;;;20.00;55.00;;;;;;5073125;28;20169;-86
2022/06/20 13:26:47;;;;;;;3.10;1.58;;;19.30;55.10;;;;;;5073073;28;20664;-86
2022/06/20 13:29:41;;;;;;;6.25;1.83;;;18.80;57.10;;;;;;5074185;28;20194;-86
2022/06/20 13:32:30;;;;;;;4.63;1.90;;;18.90;58.00;;;;;;5074404;28;20244;-86
2022/06/20 13:35:04;;;;;;;7.10;2.10;;;19.30;58.30;;;;;;5072859;28;20179;-85
2022/06/20 13:37:47;;;;;;;5.72;2.15;;;19.00;59.70;;;;;;5074067;28;20515;-87
2022/06/20 13:40:26;;;;;;;4.65;1.50;;;19.30;57.10;;;;;;5072720;28;20211;-85
2022/06/20 13:43:08;;;;;;;5.05;1.50;;;19.70;56.40;;;;;;5074107;28;20273;-86
2022/06/20 13:46:13;;;;;;;5.15;1.52;;;19.30;56.90;;;;;;5073987;28;20235;-86
2022/06/20 13:48:46;;;;;;;6.10;1.77;;;19.60;57.80;;;;;;5074719;28;20170;-86
2022/06/20 13:51:25;;;;;;;5.22;1.85;;;19.20;56.70;;;;;;5074230;28;20191;-85